createdAt,value
2022-10-18T00:02:20.754Z,15.20
2022-10-18T00:04:47.678Z,15.20
2022-10-18T00:07:14.776Z,15.10
2022-10-18T00:09:41.742Z,15.10
2022-10-18T00:12:16.059Z,15.10
2022-10-18T00:14:43.165Z,15.10
2022-10-18T00:17:10.256Z,15.10
2022-10-18T00:19:38.589Z,15.00
2022-10-18T00:22:05.521Z,15.00
2022-10-18T00:24:32.431Z,15.00
2022-10-18T00:26:59.513Z,14.90
2022-10-18T00:29:26.738Z,14.80
2022-10-18T00:31:53.718Z,14.70
2022-10-18T00:34:20.704Z,14.70
2022-10-18T00:36:47.605Z,14.70
2022-10-18T00:39:15.835Z,14.60
2022-10-18T00:41:43.904Z,14.60
2022-10-18T00:44:15.051Z,14.50
2022-10-18T00:46:43.249Z,14.50
2022-10-18T00:49:14.585Z,14.40
2022-10-18T00:51:48.845Z,14.40
2022-10-18T00:54:16.135Z,14.30
2022-10-18T00:56:45.109Z,14.20
2022-10-18T00:59:12.580Z,14.20
2022-10-18T01:01:39.532Z,14.20
2022-10-18T01:04:06.618Z,14.20
2022-10-18T01:06:33.524Z,14.10
2022-10-18T01:09:07.080Z,14.20
2022-10-18T01:11:37.099Z,14.20
2022-10-18T01:14:07.218Z,14.20
2022-10-18T01:16:40.074Z,14.10
2022-10-18T01:19:06.985Z,14.20
2022-10-18T01:21:40.582Z,14.20
2022-10-18T01:24:14.266Z,14.10
2022-10-18T01:26:53.296Z,14.10
2022-10-18T01:29:23.231Z,14.00
2022-10-18T01:31:50.661Z,13.90
2022-10-18T01:34:17.883Z,13.80
2022-10-18T01:36:46.492Z,13.80
2022-10-18T01:39:14.828Z,13.80
2022-10-18T01:41:41.666Z,13.80
2022-10-18T01:44:09.800Z,13.80
2022-10-18T01:46:36.683Z,13.80
2022-10-18T01:49:04.139Z,13.80
2022-10-18T01:51:31.630Z,13.80
2022-10-18T01:53:58.508Z,13.80
2022-10-18T01:56:28.498Z,13.80
2022-10-18T01:58:55.361Z,13.70
2022-10-18T02:01:29.916Z,13.70
2022-10-18T02:03:57.320Z,13.70
2022-10-18T02:06:27.270Z,13.70
2022-10-18T02:08:55.415Z,13.60
2022-10-18T02:11:22.886Z,13.50
2022-10-18T02:13:52.944Z,13.50
2022-10-18T02:16:20.597Z,13.40
2022-10-18T02:18:51.113Z,13.30
2022-10-18T02:21:18.277Z,13.20
2022-10-18T02:23:45.784Z,13.30
2022-10-18T02:26:13.152Z,13.20
2022-10-18T02:28:40.090Z,13.20
2022-10-18T02:31:10.957Z,13.20
2022-10-18T02:33:40.889Z,13.20
2022-10-18T02:36:12.865Z,13.30
2022-10-18T02:38:40.447Z,13.30
2022-10-18T02:41:07.329Z,13.20
2022-10-18T02:43:35.621Z,13.10
2022-10-18T02:46:02.646Z,13.00
2022-10-18T02:48:29.778Z,12.90
2022-10-18T02:50:56.790Z,12.90
2022-10-18T02:53:23.661Z,12.80
2022-10-18T02:55:50.508Z,12.70
2022-10-18T02:58:17.476Z,12.70
2022-10-18T03:00:44.291Z,12.70
2022-10-18T03:03:11.171Z,12.70
2022-10-18T03:05:38.105Z,12.60
2022-10-18T03:08:05.023Z,12.60
2022-10-18T03:10:31.998Z,12.70
2022-10-18T03:12:59.403Z,12.70
2022-10-18T03:15:26.451Z,12.70
2022-10-18T03:17:53.576Z,12.60
2022-10-18T03:20:20.733Z,12.70
2022-10-18T03:22:47.677Z,12.70
2022-10-18T03:25:14.519Z,12.70
2022-10-18T03:27:41.394Z,12.70
2022-10-18T03:30:08.817Z,12.70
2022-10-18T03:32:35.756Z,12.60
2022-10-18T03:35:02.988Z,12.60
2022-10-18T03:37:29.879Z,12.60
2022-10-18T03:39:56.742Z,12.60
2022-10-18T03:42:23.772Z,12.50
2022-10-18T03:44:55.343Z,12.50
2022-10-18T03:47:22.206Z,12.40
2022-10-18T03:49:51.959Z,12.30
2022-10-18T03:52:21.585Z,12.20
2022-10-18T03:54:49.654Z,12.20
2022-10-18T03:57:18.799Z,12.20
2022-10-18T03:59:45.665Z,12.20
2022-10-18T04:02:12.597Z,12.20
2022-10-18T04:04:40.187Z,12.20
2022-10-18T04:07:07.079Z,12.20
2022-10-18T04:09:36.423Z,12.20
2022-10-18T04:12:03.461Z,12.20
2022-10-18T04:14:32.482Z,12.20
2022-10-18T04:16:59.413Z,12.30
2022-10-18T04:19:28.167Z,12.30
2022-10-18T04:21:55.268Z,12.30
2022-10-18T04:24:22.282Z,12.30
2022-10-18T04:26:49.460Z,12.20
2022-10-18T04:29:16.343Z,12.20
2022-10-18T04:31:43.329Z,12.10
2022-10-18T04:34:10.977Z,11.90
2022-10-18T04:36:38.184Z,11.90
2022-10-18T04:39:05.424Z,11.90
2022-10-18T04:41:32.355Z,11.90
2022-10-18T04:43:59.398Z,11.80
2022-10-18T04:46:26.445Z,11.80
2022-10-18T04:48:56.012Z,11.70
2022-10-18T04:51:23.268Z,11.70
2022-10-18T04:53:50.279Z,11.70
2022-10-18T04:56:17.786Z,11.60
2022-10-18T04:58:45.415Z,11.60
2022-10-18T05:01:13.183Z,11.60
2022-10-18T05:03:40.754Z,11.60
2022-10-18T05:06:09.053Z,11.60
2022-10-18T05:08:36.713Z,11.50
2022-10-18T05:11:04.316Z,11.60
2022-10-18T05:13:32.087Z,11.60
2022-10-18T05:16:04.670Z,11.60
2022-10-18T05:18:31.659Z,11.60
2022-10-18T05:20:58.827Z,11.60
2022-10-18T05:23:28.489Z,11.60
2022-10-18T05:25:55.406Z,11.60
2022-10-18T05:28:41.037Z,11.60
2022-10-18T05:31:09.107Z,11.60
2022-10-18T05:33:36.105Z,11.60
2022-10-18T05:36:03.344Z,11.60
2022-10-18T05:38:31.543Z,11.60
2022-10-18T05:40:58.917Z,11.60
2022-10-18T05:43:29.215Z,11.60
2022-10-18T05:45:56.111Z,11.60
2022-10-18T05:48:23.002Z,11.70
2022-10-18T05:50:50.029Z,11.80
2022-10-18T05:53:35.565Z,11.80
2022-10-18T05:56:04.584Z,11.90
2022-10-18T05:58:33.230Z,11.90
2022-10-18T06:01:01.796Z,11.90
2022-10-18T06:03:31.022Z,12.00
2022-10-18T06:06:02.650Z,12.10
2022-10-18T06:08:29.842Z,12.10
2022-10-18T06:10:56.838Z,12.10
2022-10-18T06:13:24.081Z,12.10
2022-10-18T06:15:55.347Z,12.20
2022-10-18T06:18:22.209Z,12.20
2022-10-18T06:20:49.406Z,12.30
2022-10-18T06:23:16.302Z,12.40
2022-10-18T06:25:43.187Z,12.60
2022-10-18T06:28:11.612Z,13.30
2022-10-18T06:30:39.384Z,14.30
2022-10-18T06:33:06.306Z,15.50
2022-10-18T06:35:33.189Z,16.60
2022-10-18T06:38:00.052Z,17.70
2022-10-18T06:40:26.914Z,18.60
2022-10-18T06:43:00.769Z,19.50
2022-10-18T06:45:33.626Z,20.40
2022-10-18T06:48:00.682Z,21.10
2022-10-18T06:50:28.008Z,21.80
2022-10-18T06:52:55.468Z,22.30
2022-10-18T06:55:22.422Z,23.10
2022-10-18T06:57:49.408Z,23.70
2022-10-18T07:00:16.493Z,24.40
2022-10-18T07:02:45.977Z,25.00
2022-10-18T07:05:12.927Z,25.50
2022-10-18T07:07:39.761Z,26.00
2022-10-18T07:10:06.827Z,26.40
2022-10-18T07:12:34.024Z,26.80
2022-10-18T07:15:03.490Z,27.30
2022-10-18T07:17:34.038Z,27.70
2022-10-18T07:20:03.085Z,28.10
2022-10-18T07:22:30.579Z,28.50
2022-10-18T07:24:57.497Z,28.90
2022-10-18T07:27:24.472Z,29.40
2022-10-18T07:29:51.600Z,29.90
2022-10-18T07:32:18.812Z,30.30
2022-10-18T07:34:45.753Z,30.50
2022-10-18T07:37:12.747Z,31.00
2022-10-18T07:39:39.801Z,31.30
2022-10-18T07:42:07.021Z,31.70
2022-10-18T07:44:34.065Z,32.00
2022-10-18T07:47:01.252Z,32.20
2022-10-18T07:49:28.206Z,32.60
2022-10-18T07:51:55.841Z,33.00
2022-10-18T07:54:23.399Z,33.50
2022-10-18T07:56:50.483Z,33.80
2022-10-18T07:59:17.840Z,34.40
2022-10-18T08:01:44.702Z,34.60
2022-10-18T08:04:16.222Z,34.70
2022-10-18T08:06:43.777Z,34.60
2022-10-18T08:09:10.703Z,34.80
2022-10-18T08:11:37.743Z,34.60
2022-10-18T08:14:04.777Z,34.70
2022-10-18T08:18:59.919Z,35.60
2022-10-18T08:21:27.101Z,36.20
2022-10-18T08:23:54.880Z,36.70
2022-10-18T08:26:22.505Z,37.10
2022-10-18T08:28:58.379Z,37.30
2022-10-18T08:31:30.893Z,37.60
2022-10-18T08:33:58.250Z,38.00
2022-10-18T08:36:25.205Z,38.40
2022-10-18T08:38:52.178Z,38.60
2022-10-18T08:41:31.939Z,38.60
2022-10-18T08:44:13.301Z,38.40
2022-10-18T08:46:41.871Z,38.50
2022-10-18T08:49:11.173Z,38.30
2022-10-18T08:51:46.143Z,38.40
2022-10-18T08:54:14.407Z,38.70
2022-10-18T08:56:42.183Z,39.30
2022-10-18T08:59:12.534Z,39.60
2022-10-18T09:04:33.060Z,40.60
2022-10-18T09:07:18.308Z,41.10
2022-10-18T09:09:47.691Z,41.20
2022-10-18T09:12:27.099Z,40.80
2022-10-18T09:14:56.806Z,40.80
2022-10-18T09:17:42.412Z,41.10
2022-10-18T09:20:25.690Z,41.70
2022-10-18T09:23:10.871Z,42.40
2022-10-18T09:25:47.683Z,42.00
2022-10-18T09:28:34.899Z,41.80
2022-10-18T09:31:01.888Z,42.30
2022-10-18T09:33:31.342Z,43.00
2022-10-18T09:35:59.254Z,43.50
2022-10-18T09:38:27.523Z,43.20
2022-10-18T09:40:58.948Z,43.00
2022-10-18T09:43:46.092Z,42.50
2022-10-18T09:46:13.041Z,42.30
2022-10-18T09:48:45.663Z,42.00
2022-10-18T09:51:22.039Z,42.20
2022-10-18T09:53:57.038Z,42.60
2022-10-18T09:56:29.892Z,43.00
2022-10-18T09:58:56.915Z,43.00
2022-10-18T10:01:27.208Z,43.30
2022-10-18T10:03:54.055Z,43.60
2022-10-18T10:06:34.817Z,43.10
2022-10-18T10:09:05.413Z,43.30
2022-10-18T10:11:40.356Z,43.20
2022-10-18T10:14:08.604Z,43.30
2022-10-18T10:16:39.626Z,43.40
2022-10-18T10:19:06.460Z,43.30
2022-10-18T10:21:33.300Z,43.00
2022-10-18T10:24:02.535Z,43.50
2022-10-18T10:26:30.963Z,44.20
2022-10-18T10:28:57.863Z,45.20
2022-10-18T10:31:24.768Z,45.10
2022-10-18T10:34:18.160Z,44.40
2022-10-18T10:36:50.972Z,44.30
2022-10-18T10:39:18.963Z,44.00
2022-10-18T10:41:49.852Z,44.70
2022-10-18T10:44:27.119Z,45.30
2022-10-18T10:46:54.935Z,45.50
2022-10-18T10:52:26.695Z,46.50
2022-10-18T10:55:30.904Z,46.80
2022-10-18T10:57:53.332Z,45.80
2022-10-18T11:00:39.913Z,45.50
2022-10-18T11:03:27.369Z,45.80
2022-10-18T11:05:59.868Z,45.90
2022-10-18T11:08:27.419Z,45.90
2022-10-18T11:11:06.301Z,46.50
2022-10-18T11:14:20.907Z,46.40
2022-10-18T11:16:51.845Z,46.80
2022-10-18T11:19:30.508Z,47.00
2022-10-18T11:21:57.405Z,47.10
2022-10-18T11:24:27.036Z,46.70
2022-10-18T11:26:58.901Z,46.50
2022-10-18T11:29:28.301Z,46.80
2022-10-18T11:32:04.745Z,47.10
2022-10-18T11:34:43.766Z,47.60
2022-10-18T11:37:43.109Z,48.20
2022-10-18T11:40:16.068Z,48.40
2022-10-18T11:42:58.163Z,48.30
2022-10-18T11:45:28.135Z,48.10
2022-10-18T11:47:58.861Z,47.60
2022-10-18T11:50:30.193Z,47.20
2022-10-18T11:53:15.661Z,47.20
2022-10-18T11:56:00.955Z,47.50
2022-10-18T11:58:47.081Z,48.00
2022-10-18T12:01:17.158Z,48.40
2022-10-18T12:04:02.135Z,48.70
2022-10-18T12:06:30.900Z,48.80
2022-10-18T12:09:00.720Z,48.70
2022-10-18T12:11:49.421Z,48.60
2022-10-18T12:14:26.016Z,48.20
2022-10-18T12:17:07.696Z,47.70
2022-10-18T12:19:39.729Z,47.40
2022-10-18T12:22:33.783Z,47.40
2022-10-18T12:25:02.067Z,47.50
2022-10-18T12:27:40.371Z,47.30
2022-10-18T12:30:09.475Z,47.50
2022-10-18T12:32:36.367Z,46.90
2022-10-18T12:35:13.497Z,46.70
2022-10-18T12:37:59.269Z,46.90
2022-10-18T12:40:32.287Z,46.70
2022-10-18T12:42:59.316Z,46.90
2022-10-18T12:45:30.659Z,46.90
2022-10-18T12:48:01.282Z,47.10
2022-10-18T12:50:32.649Z,47.50
2022-10-18T12:53:05.520Z,47.60
2022-10-18T12:58:14.387Z,47.70
2022-10-18T13:00:44.416Z,47.70
2022-10-18T13:03:14.788Z,47.70
2022-10-18T13:05:53.795Z,47.70
2022-10-18T13:08:27.810Z,47.90
2022-10-18T13:11:13.214Z,47.80
2022-10-18T13:13:59.011Z,47.80
2022-10-18T13:16:44.606Z,47.80
2022-10-18T13:19:11.548Z,47.60
2022-10-18T13:21:41.426Z,47.00
2022-10-18T13:24:14.403Z,46.30
2022-10-18T13:27:04.209Z,46.20
2022-10-18T13:30:06.092Z,46.20
2022-10-18T13:32:37.043Z,46.00
2022-10-18T13:35:04.007Z,45.20
2022-10-18T13:37:36.985Z,44.90
2022-10-18T13:40:23.168Z,44.90
2022-10-18T13:42:50.719Z,44.80
2022-10-18T13:45:32.898Z,44.80
2022-10-18T13:48:38.650Z,44.80
2022-10-18T13:51:31.942Z,44.80
2022-10-18T13:54:11.903Z,44.80
2022-10-18T13:56:42.081Z,44.70
2022-10-18T13:59:15.246Z,44.60
2022-10-18T14:01:52.961Z,44.50
2022-10-18T14:04:23.346Z,44.20
2022-10-18T14:06:50.209Z,43.50
2022-10-18T14:09:26.431Z,43.00
2022-10-18T14:12:23.182Z,42.60
2022-10-18T14:15:12.474Z,42.20
2022-10-18T14:17:43.080Z,41.60
2022-10-18T14:20:16.088Z,41.60
2022-10-18T14:22:49.095Z,41.60
2022-10-18T14:25:20.012Z,41.50
2022-10-18T14:27:50.870Z,41.10
2022-10-18T14:30:21.237Z,40.80
2022-10-18T14:32:49.144Z,40.60
2022-10-18T14:35:37.638Z,40.40
2022-10-18T14:38:12.940Z,40.10
2022-10-18T14:40:40.378Z,39.60
2022-10-18T14:43:11.724Z,39.10
2022-10-18T14:45:38.805Z,38.50
2022-10-18T14:48:09.046Z,37.20
2022-10-18T14:50:36.017Z,35.60
2022-10-18T14:53:07.138Z,34.60
2022-10-18T14:55:34.082Z,33.70
2022-10-18T14:58:01.313Z,33.00
2022-10-18T15:00:30.983Z,32.30
2022-10-18T15:02:57.933Z,31.70
2022-10-18T15:05:25.100Z,31.20
2022-10-18T15:07:54.778Z,30.60
2022-10-18T15:10:22.862Z,30.00
2022-10-18T15:13:08.590Z,29.80
2022-10-18T15:15:36.361Z,29.70
2022-10-18T15:18:05.379Z,29.70
2022-10-18T15:20:39.624Z,29.70
2022-10-18T15:23:26.089Z,29.70
2022-10-18T15:25:53.652Z,29.70
2022-10-18T15:29:00.442Z,29.70
2022-10-18T15:31:35.129Z,29.60
2022-10-18T15:34:09.067Z,29.40
2022-10-18T15:36:36.227Z,29.20
2022-10-18T15:39:16.272Z,29.00
2022-10-18T15:41:43.393Z,28.70
2022-10-18T15:44:31.826Z,28.40
2022-10-18T15:47:25.321Z,28.20
2022-10-18T15:49:54.910Z,28.00
2022-10-18T15:52:23.301Z,27.80
2022-10-18T15:54:52.549Z,27.60
2022-10-18T15:57:19.705Z,27.50
2022-10-18T15:59:51.772Z,27.30
2022-10-18T16:02:22.016Z,27.10
2022-10-18T16:04:49.454Z,26.90
2022-10-18T16:07:16.776Z,26.70
2022-10-18T16:09:43.910Z,26.50
2022-10-18T16:12:10.977Z,26.40
2022-10-18T16:14:37.893Z,26.20
2022-10-18T16:17:05.537Z,26.10
2022-10-18T16:19:32.467Z,25.90
2022-10-18T16:22:03.635Z,25.80
2022-10-18T16:24:33.097Z,25.70
2022-10-18T16:27:00.107Z,25.60
2022-10-18T16:29:32.073Z,25.50
2022-10-18T16:31:59.143Z,25.40
2022-10-18T16:34:29.277Z,25.30
2022-10-18T16:36:56.661Z,25.20
2022-10-18T16:39:23.639Z,25.00
2022-10-18T16:41:51.695Z,25.00
2022-10-18T16:44:19.392Z,24.80
2022-10-18T16:46:46.705Z,24.70
2022-10-18T16:51:45.048Z,24.40
2022-10-18T16:54:14.414Z,24.40
2022-10-18T16:56:41.626Z,24.20
2022-10-18T16:59:09.509Z,24.10
2022-10-18T17:01:38.295Z,23.90
2022-10-18T17:04:05.255Z,23.80
2022-10-18T17:06:32.992Z,23.70
2022-10-18T17:08:59.955Z,23.60
2022-10-18T17:11:27.319Z,23.60
2022-10-18T17:13:54.211Z,23.50
2022-10-18T17:19:03.971Z,23.40
2022-10-18T17:21:31.600Z,23.40
2022-10-18T17:24:00.758Z,23.30
2022-10-18T17:26:29.627Z,23.30
2022-10-18T17:29:00.961Z,23.30
2022-10-18T17:31:28.486Z,23.20
2022-10-18T17:33:55.677Z,23.20
2022-10-18T17:36:22.748Z,23.00
2022-10-18T17:38:55.869Z,23.00
2022-10-18T17:41:22.814Z,22.90
2022-10-18T17:43:49.888Z,22.90
2022-10-18T17:46:18.012Z,22.80
2022-10-18T17:48:45.515Z,22.80
2022-10-18T17:51:15.957Z,22.70
2022-10-18T17:53:43.076Z,22.60
2022-10-18T17:56:10.112Z,22.40
2022-10-18T17:58:37.149Z,22.40
2022-10-18T18:01:14.266Z,22.30
2022-10-18T18:03:41.208Z,22.20
2022-10-18T18:06:14.944Z,22.10
2022-10-18T18:08:41.828Z,22.00
2022-10-18T18:11:08.649Z,22.00
2022-10-18T18:13:35.921Z,21.90
2022-10-18T18:16:13.120Z,21.80
2022-10-18T18:18:40.039Z,21.70
2022-10-18T18:21:07.078Z,21.70
2022-10-18T18:23:34.108Z,21.60
2022-10-18T18:26:01.089Z,21.60
2022-10-18T18:28:28.156Z,21.50
2022-10-18T18:30:56.956Z,21.30
2022-10-18T18:33:23.904Z,21.20
2022-10-18T18:35:57.482Z,21.00
2022-10-18T18:38:24.726Z,21.00
2022-10-18T18:41:02.822Z,20.80
2022-10-18T18:43:35.623Z,20.70
2022-10-18T18:46:02.734Z,20.60
2022-10-18T18:48:30.224Z,20.60
2022-10-18T18:50:57.441Z,20.50
2022-10-18T18:53:28.551Z,20.50
2022-10-18T18:56:03.660Z,20.40
2022-10-18T18:58:30.786Z,20.40
2022-10-18T19:01:00.563Z,20.30
2022-10-18T19:03:27.548Z,20.20
2022-10-18T19:06:02.247Z,20.20
2022-10-18T19:08:29.094Z,20.10
2022-10-18T19:10:56.032Z,20.10
2022-10-18T19:13:23.314Z,20.00
2022-10-18T19:15:50.252Z,19.90
2022-10-18T19:18:20.340Z,19.80
2022-10-18T19:20:49.967Z,19.70
2022-10-18T19:23:16.889Z,19.60
2022-10-18T19:25:43.945Z,19.50
2022-10-18T19:28:10.792Z,19.40
2022-10-18T19:30:37.777Z,19.40
2022-10-18T19:33:05.065Z,19.40
2022-10-18T19:35:32.063Z,19.40
2022-10-18T19:37:59.489Z,19.40
2022-10-18T19:40:26.551Z,19.40
2022-10-18T19:42:53.555Z,19.40
2022-10-18T19:45:20.521Z,19.30
2022-10-18T19:47:47.605Z,19.20
2022-10-18T19:50:14.628Z,19.10
2022-10-18T19:52:41.602Z,19.00
2022-10-18T19:55:09.239Z,19.00
2022-10-18T19:57:36.415Z,19.00
2022-10-18T20:00:06.701Z,18.90
2022-10-18T20:02:37.067Z,18.90
2022-10-18T20:05:07.482Z,18.80
2022-10-18T20:07:35.191Z,18.70
2022-10-18T20:10:02.564Z,18.60
2022-10-18T20:12:29.924Z,18.50
2022-10-18T20:15:00.127Z,18.40
2022-10-18T20:17:29.577Z,18.30
2022-10-18T20:19:56.699Z,18.20
2022-10-18T20:22:23.626Z,18.20
2022-10-18T20:24:50.509Z,18.30
2022-10-18T20:27:17.401Z,18.20
2022-10-18T20:29:44.455Z,18.20
2022-10-18T20:32:11.665Z,18.20
2022-10-18T20:34:38.645Z,18.20
2022-10-18T20:37:05.672Z,18.20
2022-10-18T20:39:33.771Z,18.10
2022-10-18T20:42:00.964Z,18.00
2022-10-18T20:44:29.926Z,17.90
2022-10-18T20:46:59.291Z,17.90
2022-10-18T20:49:29.080Z,17.80
2022-10-18T20:51:56.341Z,17.70
2022-10-18T20:54:23.536Z,17.80
2022-10-18T20:56:50.437Z,17.70
2022-10-18T20:59:17.451Z,17.70
2022-10-18T21:01:44.645Z,17.60
2022-10-18T21:04:11.705Z,17.50
2022-10-18T21:06:40.591Z,17.50
2022-10-18T21:09:08.798Z,17.50
2022-10-18T21:11:37.262Z,17.30
2022-10-18T21:14:04.414Z,17.30
2022-10-18T21:16:31.835Z,17.30
2022-10-18T21:19:02.651Z,17.20
2022-10-18T21:21:29.515Z,17.20
2022-10-18T21:23:56.410Z,17.10
2022-10-18T21:26:28.211Z,17.00
2022-10-18T21:28:56.874Z,17.00
2022-10-18T21:31:25.122Z,17.00
2022-10-18T21:33:53.184Z,17.00
2022-10-18T21:36:20.120Z,17.00
2022-10-18T21:38:47.234Z,16.90
2022-10-18T21:41:14.785Z,16.90
2022-10-18T21:43:45.438Z,16.80
2022-10-18T21:46:12.379Z,16.70
2022-10-18T21:48:39.345Z,16.70
2022-10-18T21:51:06.771Z,16.70
2022-10-18T21:53:34.133Z,16.60
2022-10-18T21:56:07.760Z,16.50
2022-10-18T21:58:35.312Z,16.60
2022-10-18T22:01:02.724Z,16.50
2022-10-18T22:03:29.749Z,16.60
2022-10-18T22:06:01.599Z,16.50
2022-10-18T22:08:28.817Z,16.50
2022-10-18T22:11:03.512Z,16.40
2022-10-18T22:13:30.618Z,16.40
2022-10-18T22:16:00.391Z,16.40
2022-10-18T22:18:27.435Z,16.30
2022-10-18T22:20:55.227Z,16.30
2022-10-18T22:23:22.344Z,16.20
2022-10-18T22:25:49.406Z,16.20
2022-10-18T22:28:16.353Z,16.20
2022-10-18T22:30:43.412Z,16.10
2022-10-18T22:33:10.371Z,16.00
2022-10-18T22:35:37.279Z,16.10
2022-10-18T22:38:04.144Z,16.00
2022-10-18T22:40:31.320Z,16.00
2022-10-18T22:42:58.330Z,16.00
2022-10-18T22:45:25.442Z,16.00
2022-10-18T22:47:52.386Z,16.00
2022-10-18T22:50:19.458Z,15.90
2022-10-18T22:52:46.278Z,15.80
2022-10-18T22:55:13.164Z,15.70
2022-10-18T22:57:40.073Z,15.60
2022-10-18T23:00:07.215Z,15.60
2022-10-18T23:02:34.657Z,15.50
2022-10-18T23:05:03.019Z,15.50
2022-10-18T23:07:29.933Z,15.40
2022-10-18T23:09:56.886Z,15.40
2022-10-18T23:12:23.757Z,15.30
2022-10-18T23:14:50.687Z,15.30
2022-10-18T23:17:17.570Z,15.30
2022-10-18T23:19:44.471Z,15.30
2022-10-18T23:22:11.428Z,15.30
2022-10-18T23:24:38.338Z,15.30
2022-10-18T23:27:05.223Z,15.20
2022-10-18T23:29:32.111Z,15.20
2022-10-18T23:31:59.071Z,15.20
2022-10-18T23:34:25.998Z,15.20
2022-10-18T23:36:52.995Z,15.20
2022-10-18T23:39:19.937Z,15.10
2022-10-18T23:41:46.853Z,15.10
2022-10-18T23:44:13.898Z,15.00
2022-10-18T23:46:40.906Z,15.00
2022-10-18T23:49:07.880Z,14.90
2022-10-18T23:51:34.935Z,14.80
2022-10-18T23:54:01.843Z,14.80
2022-10-18T23:56:28.813Z,14.80
2022-10-18T23:58:55.967Z,14.80
